Time;durP1;ratioP1;P1;durP2;ratioP2;P2;SDS_P1;SDS_P2;PMS_P1;PMS_P2;Temp;Humidity;BMP_temperature;BMP_pressure;BME280_temperature;BME280_humidity;BME280_pressure;Samples;Min_cycle;Max_cycle;Signal;HPM_P1;HPM_P2
2022/08/13 00:01:40;;;;;;;1.80;0.50;;;22.10;53.00;;;;;;5112192;28;20059;-78
2022/08/13 00:04:08;;;;;;;1.20;0.88;;;22.10;53.00;;;;;;5113367;28;20084;-79
2022/08/13 00:09:05;;;;;;;1.15;0.68;;;22.00;53.20;;;;;;5113232;28;20024;-80
2022/08/13 00:14:17;;;;;;;1.02;0.77;;;22.00;53.30;;;;;;5113010;28;20542;-79
2022/08/13 00:16:42;;;;;;;1.08;0.60;;;22.00;53.40;;;;;;5112569;28;20028;-79
2022/08/13 00:19:08;;;;;;;1.52;0.57;;;21.90;53.50;;;;;;5112501;28;20076;-79
2022/08/13 00:21:34;;;;;;;2.25;0.68;;;21.90;53.80;;;;;;5111908;28;20040;-79
2022/08/13 00:24:00;;;;;;;3.13;0.80;;;21.80;54.20;;;;;;5112330;28;20049;-80
2022/08/13 00:26:26;;;;;;;1.23;0.60;;;21.80;54.40;;;;;;5112776;28;20030;-79
2022/08/13 00:28:55;;;;;;;1.60;0.90;;;21.80;54.50;;;;;;5115409;28;20047;-78
2022/08/13 00:31:25;;;;;;;3.45;0.60;;;21.70;54.50;;;;;;5115561;28;20118;-79
2022/08/13 00:33:51;;;;;;;3.95;0.90;;;21.70;55.00;;;;;;5116294;28;20023;-77
2022/08/13 00:36:17;;;;;;;3.20;0.60;;;21.60;54.60;;;;;;5115192;28;20118;-77
2022/08/13 00:38:44;;;;;;;3.72;0.90;;;21.60;54.80;;;;;;5117318;28;20024;-77
2022/08/13 00:41:37;;;;;;;3.42;0.80;;;21.50;54.90;;;;;;5115487;28;20052;-77
2022/08/13 00:43:57;;;;;;;3.42;0.88;;;21.40;55.00;;;;;;5116728;28;20036;-78
2022/08/13 00:46:23;;;;;;;2.25;0.75;;;21.40;55.30;;;;;;5115017;28;20058;-77
2022/08/13 00:48:49;;;;;;;2.72;0.65;;;21.30;55.60;;;;;;5117053;28;20526;-78
2022/08/13 00:51:16;;;;;;;1.02;0.90;;;21.20;55.90;;;;;;5115233;28;20034;-76
2022/08/13 00:53:43;;;;;;;1.98;0.82;;;21.10;56.10;;;;;;5117247;28;20020;-77
2022/08/13 00:56:11;;;;;;;1.85;0.90;;;21.10;56.30;;;;;;5115463;28;20034;-77
2022/08/13 00:58:38;;;;;;;1.10;0.85;;;21.10;56.50;;;;;;5115949;28;20043;-77
2022/08/13 01:01:06;;;;;;;3.25;0.75;;;21.00;56.60;;;;;;5115378;28;20424;-77
2022/08/13 01:03:34;;;;;;;4.60;0.98;;;20.90;56.70;;;;;;5114848;28;20024;-77
2022/08/13 01:06:01;;;;;;;2.53;1.15;;;21.00;56.80;;;;;;5115740;28;20023;-78
2022/08/13 01:08:31;;;;;;;1.20;0.80;;;20.90;56.70;;;;;;5115883;28;20096;-77
2022/08/13 01:11:01;;;;;;;1.70;0.90;;;20.90;56.90;;;;;;5115578;28;20109;-77
2022/08/13 01:13:28;;;;;;;1.30;0.85;;;20.90;57.10;;;;;;5114504;28;20134;-78
2022/08/13 01:15:54;;;;;;;2.03;0.80;;;20.80;56.90;;;;;;5115359;28;20034;-78
2022/08/13 01:18:24;;;;;;;2.17;0.80;;;20.80;56.80;;;;;;5115791;28;20016;-77
2022/08/13 01:21:02;;;;;;;1.83;0.88;;;20.80;56.90;;;;;;5116366;28;20161;-78
2022/08/13 01:23:29;;;;;;;2.95;1.20;;;20.80;57.20;;;;;;5114727;28;20020;-78
2022/08/13 01:25:59;;;;;;;0.95;0.70;;;20.70;57.30;;;;;;5115407;28;20094;-78
2022/08/13 01:28:29;;;;;;;1.65;0.80;;;20.70;57.40;;;;;;5115698;28;20156;-79
2022/08/13 01:30:58;;;;;;;2.05;0.90;;;20.60;57.50;;;;;;5116551;28;20016;-78
2022/08/13 01:33:24;;;;;;;0.95;0.70;;;20.60;57.70;;;;;;5114366;28;20471;-78
2022/08/13 01:35:52;;;;;;;1.02;0.65;;;20.60;57.70;;;;;;5115351;28;20395;-79
2022/08/13 01:38:21;;;;;;;2.88;0.70;;;20.50;57.80;;;;;;5114804;28;20031;-76
2022/08/13 01:40:47;;;;;;;0.60;0.60;;;20.50;57.90;;;;;;5115313;28;20047;-78
2022/08/13 01:43:13;;;;;;;0.70;0.70;;;20.50;58.00;;;;;;5116144;28;20032;-79
2022/08/13 01:45:43;;;;;;;1.10;0.63;;;20.50;58.00;;;;;;5114441;28;20035;-79
2022/08/13 01:50:52;;;;;;;1.52;0.80;;;20.50;58.00;;;;;;5116043;28;20074;-78
2022/08/13 01:53:18;;;;;;;1.13;0.55;;;20.50;58.10;;;;;;5115342;28;20051;-75
2022/08/13 01:55:47;;;;;;;1.48;0.75;;;20.40;58.10;;;;;;5115778;27;20028;-78
2022/08/13 01:58:22;;;;;;;2.03;0.80;;;20.40;58.30;;;;;;5114698;28;20023;-78
2022/08/13 02:00:51;;;;;;;1.23;0.80;;;20.40;58.40;;;;;;5114948;28;20043;-78
2022/08/13 02:03:19;;;;;;;1.40;1.30;;;20.30;58.40;;;;;;5115594;28;20039;-78
2022/08/13 02:05:49;;;;;;;1.77;0.70;;;20.30;58.70;;;;;;5114555;28;20024;-78
2022/08/13 02:08:20;;;;;;;1.60;1.33;;;20.20;58.80;;;;;;5115430;27;20028;-78
2022/08/13 02:10:47;;;;;;;1.70;0.60;;;20.20;59.00;;;;;;5114384;28;20035;-78
2022/08/13 02:13:17;;;;;;;1.95;0.98;;;20.20;59.20;;;;;;5114163;28;20480;-78
2022/08/13 02:15:48;;;;;;;1.77;0.60;;;20.10;59.40;;;;;;5113965;28;20480;-78
2022/08/13 02:18:20;;;;;;;1.30;1.07;;;20.10;59.50;;;;;;5114261;28;20032;-78
2022/08/13 02:20:51;;;;;;;2.65;0.60;;;20.10;59.70;;;;;;5115409;28;20028;-78
2022/08/13 02:23:19;;;;;;;;;;;20.10;59.80;;;;;;5115440;28;20476;-78
2022/08/13 02:25:46;;;;;;;3.38;0.80;;;20.00;60.10;;;;;;5113944;28;19957;-78
2022/08/13 02:28:14;;;;;;;3.08;0.95;;;19.90;60.00;;;;;;5115113;28;20088;-79
2022/08/13 02:30:42;;;;;;;1.67;0.85;;;19.90;60.20;;;;;;5113633;28;20081;-78
2022/08/13 02:33:08;;;;;;;0.77;0.73;;;19.90;60.60;;;;;;5114006;28;20366;-78
2022/08/13 02:35:37;;;;;;;2.67;0.95;;;19.80;60.60;;;;;;5114522;28;20026;-78
2022/08/13 02:38:04;;;;;;;0.80;0.70;;;19.80;60.60;;;;;;5115023;28;20019;-79
2022/08/13 02:43:14;;;;;;;1.20;0.90;;;19.90;60.40;;;;;;5114393;28;20108;-78
2022/08/13 02:45:40;;;;;;;1.83;0.98;;;19.90;60.50;;;;;;5114377;28;20024;-78
2022/08/13 02:48:06;;;;;;;1.40;0.85;;;19.90;60.70;;;;;;5113912;28;20024;-79
2022/08/13 02:50:33;;;;;;;2.80;0.88;;;19.80;60.50;;;;;;5112535;28;20118;-79
2022/08/13 02:52:59;;;;;;;1.00;0.80;;;19.80;60.60;;;;;;5113802;28;20543;-79
2022/08/13 02:55:30;;;;;;;0.90;0.60;;;19.80;60.60;;;;;;5113074;28;20062;-79
2022/08/13 02:57:55;;;;;;;1.30;0.80;;;19.70;60.70;;;;;;5114011;28;20465;-79
2022/08/13 03:00:22;;;;;;;0.95;0.70;;;19.70;61.60;;;;;;5113552;28;20034;-79
2022/08/13 03:02:48;;;;;;;0.80;0.80;;;19.60;60.90;;;;;;5113508;28;20039;-79
2022/08/13 03:05:17;;;;;;;1.90;1.20;;;19.60;60.90;;;;;;5115056;28;20019;-79
2022/08/13 03:07:47;;;;;;;1.10;0.95;;;19.60;60.90;;;;;;5113956;28;20280;-79
2022/08/13 03:10:16;;;;;;;4.32;0.80;;;19.60;60.90;;;;;;5113816;28;20132;-78
2022/08/13 03:12:47;;;;;;;1.95;0.90;;;19.60;60.90;;;;;;5112410;28;20042;-78
2022/08/13 03:15:15;;;;;;;2.38;1.00;;;19.60;61.10;;;;;;5113444;28;20024;-78
2022/08/13 03:17:41;;;;;;;3.78;1.20;;;19.60;61.20;;;;;;5113670;28;20027;-78
2022/08/13 03:20:10;;;;;;;2.78;0.82;;;19.50;61.40;;;;;;5113622;28;20028;-77
2022/08/13 03:23:07;;;;;;;2.45;0.90;;;19.50;61.50;;;;;;5112364;28;20036;-77
2022/08/13 03:25:33;;;;;;;1.98;0.80;;;19.40;61.80;;;;;;5104113;28;20039;-77
2022/08/13 03:27:58;;;;;;;3.13;1.15;;;19.40;61.80;;;;;;5113134;28;20045;-77
2022/08/13 03:30:26;;;;;;;2.50;0.90;;;19.40;62.00;;;;;;5112997;28;20024;-77
2022/08/13 03:32:52;;;;;;;3.80;0.73;;;19.20;62.20;;;;;;5114098;28;20081;-77
2022/08/13 03:35:27;;;;;;;1.85;1.08;;;19.20;62.40;;;;;;5113957;28;20486;-78
2022/08/13 03:37:55;;;;;;;2.22;0.90;;;19.20;62.50;;;;;;5113019;28;20076;-77
2022/08/13 03:41:00;;;;;;;3.03;0.82;;;19.20;62.50;;;;;;5113061;28;20023;-77
2022/08/13 03:43:12;;;;;;;1.92;1.00;;;19.30;62.50;;;;;;5113546;28;20051;-78
2022/08/13 03:45:37;;;;;;;1.55;1.00;;;19.20;62.60;;;;;;5113161;28;20020;-77
2022/08/13 03:48:03;;;;;;;2.95;1.00;;;19.20;62.60;;;;;;5112885;28;20068;-77
2022/08/13 03:50:29;;;;;;;1.67;1.15;;;19.20;62.50;;;;;;5112251;28;20400;-77
2022/08/13 03:53:00;;;;;;;3.50;0.85;;;19.30;62.50;;;;;;5113855;28;20027;-77
2022/08/13 03:55:26;;;;;;;1.38;0.90;;;19.30;62.50;;;;;;5113383;28;20020;-77
2022/08/13 03:57:52;;;;;;;3.13;1.10;;;19.30;62.60;;;;;;5113045;28;20077;-78
2022/08/13 04:00:18;;;;;;;5.35;1.00;;;19.30;62.50;;;;;;5113120;28;20024;-78
2022/08/13 04:02:43;;;;;;;3.55;1.00;;;19.20;62.60;;;;;;5113650;28;20027;-77
2022/08/13 04:05:16;;;;;;;1.00;0.90;;;19.20;63.30;;;;;;5116776;28;20384;-77
2022/08/13 04:07:43;;;;;;;3.65;1.08;;;19.20;62.80;;;;;;5115995;28;20089;-77
2022/08/13 04:10:11;;;;;;;1.80;0.80;;;19.20;62.90;;;;;;5116841;28;20058;-78
2022/08/13 04:12:37;;;;;;;1.42;0.85;;;19.20;63.00;;;;;;5115962;28;20044;-78
2022/08/13 04:15:06;;;;;;;1.30;1.20;;;19.10;63.00;;;;;;5117630;28;20119;-78
2022/08/13 04:17:33;;;;;;;2.42;0.80;;;19.10;63.10;;;;;;5117356;28;20103;-78
2022/08/13 04:19:59;;;;;;;1.98;1.00;;;19.10;63.20;;;;;;5117785;28;20019;-78
2022/08/13 04:22:27;;;;;;;2.65;0.80;;;19.10;63.20;;;;;;5116969;28;20085;-79
2022/08/13 04:24:53;;;;;;;0.77;0.70;;;19.00;63.40;;;;;;5116576;28;20028;-79
2022/08/13 04:27:18;;;;;;;0.90;0.70;;;19.10;63.30;;;;;;5116862;28;20023;-79
2022/08/13 04:29:44;;;;;;;1.20;0.80;;;19.00;63.40;;;;;;5116137;28;20059;-79
2022/08/13 04:32:10;;;;;;;1.17;0.93;;;19.00;63.40;;;;;;5117907;28;20456;-79
2022/08/13 04:34:35;;;;;;;2.15;0.93;;;19.10;63.50;;;;;;5115884;28;20057;-79
2022/08/13 04:37:01;;;;;;;3.13;1.02;;;19.00;63.50;;;;;;5116670;28;20031;-79
2022/08/13 04:39:27;;;;;;;1.63;0.85;;;19.00;63.70;;;;;;5116489;28;20383;-79
2022/08/13 04:41:53;;;;;;;2.13;0.90;;;19.00;63.90;;;;;;5116665;28;20546;-79
2022/08/13 04:44:20;;;;;;;2.10;1.10;;;18.90;64.00;;;;;;5116481;28;20031;-79
2022/08/13 04:46:45;;;;;;;1.45;1.10;;;19.00;63.90;;;;;;5115284;28;20020;-78
2022/08/13 04:49:12;;;;;;;2.30;1.10;;;19.00;63.90;;;;;;5116124;28;20475;-78
2022/08/13 04:51:38;;;;;;;1.33;0.90;;;19.00;63.90;;;;;;5115079;28;20172;-78
2022/08/13 04:54:04;;;;;;;2.20;1.10;;;19.10;63.90;;;;;;5115914;28;20065;-79
2022/08/13 04:56:30;;;;;;;1.10;0.80;;;19.10;64.00;;;;;;5116524;28;20035;-78
2022/08/13 04:58:56;;;;;;;2.05;1.13;;;19.10;63.80;;;;;;5116609;28;20338;-78
2022/08/13 05:01:22;;;;;;;1.30;0.80;;;19.10;63.80;;;;;;5115828;28;20034;-78
2022/08/13 05:03:48;;;;;;;1.98;1.10;;;19.10;63.90;;;;;;5116166;28;20363;-78
2022/08/13 05:06:21;;;;;;;1.83;1.10;;;19.10;64.00;;;;;;5115618;28;20056;-78
2022/08/13 05:08:48;;;;;;;2.85;1.25;;;19.10;64.10;;;;;;5115952;28;20065;-78
2022/08/13 05:11:14;;;;;;;2.30;0.90;;;19.10;64.10;;;;;;5115353;28;20468;-78
2022/08/13 05:13:40;;;;;;;1.48;1.10;;;19.10;64.10;;;;;;5115583;28;20027;-78
2022/08/13 05:16:08;;;;;;;2.20;1.10;;;19.10;64.10;;;;;;5116541;28;20039;-78
2022/08/13 05:18:37;;;;;;;2.63;1.20;;;19.20;64.10;;;;;;5115315;28;20056;-78
2022/08/13 05:21:05;;;;;;;2.38;1.00;;;19.20;64.10;;;;;;5115415;28;20023;-78
2022/08/13 05:23:35;;;;;;;2.08;0.80;;;19.20;64.10;;;;;;5115305;28;20028;-77
2022/08/13 05:26:01;;;;;;;2.33;1.00;;;19.20;64.10;;;;;;5114988;28;20023;-78
2022/08/13 05:28:27;;;;;;;1.25;1.00;;;19.20;64.10;;;;;;5115351;28;20114;-78
2022/08/13 05:30:53;;;;;;;1.60;0.60;;;19.30;64.30;;;;;;5114081;28;20032;-78
2022/08/13 05:33:22;;;;;;;2.15;1.00;;;19.30;64.10;;;;;;5115907;28;20020;-78
2022/08/13 05:35:50;;;;;;;2.28;0.90;;;19.30;64.00;;;;;;5115139;27;20445;-78
2022/08/13 05:38:22;;;;;;;6.97;1.70;;;19.40;63.90;;;;;;5114809;28;20023;-78
2022/08/13 05:40:51;;;;;;;0.98;0.80;;;19.40;64.00;;;;;;5113913;28;20020;-79
2022/08/13 05:43:19;;;;;;;1.58;1.00;;;19.40;64.00;;;;;;5115974;28;20480;-78
2022/08/13 05:45:57;;;;;;;2.85;0.98;;;19.40;64.00;;;;;;5114123;28;20152;-79
2022/08/13 05:48:59;;;;;;;1.20;1.10;;;19.40;64.20;;;;;;5114724;28;20023;-78
2022/08/13 05:51:33;;;;;;;3.47;1.13;;;19.40;64.40;;;;;;5114657;28;20023;-78
2022/08/13 05:54:00;;;;;;;1.00;0.90;;;19.40;64.40;;;;;;5115055;28;20111;-78
2022/08/13 05:56:37;;;;;;;0.90;0.80;;;19.40;64.10;;;;;;5114266;28;20041;-78
2022/08/13 06:03:22;;;;;;;1.48;0.90;;;19.50;64.00;;;;;;5115535;28;20024;-78
2022/08/13 06:04:38;;;;;;;0.88;0.80;;;19.60;63.80;;;;;;5114791;28;20042;-77
2022/08/13 06:07:04;;;;;;;1.48;0.77;;;19.60;64.50;;;;;;5114484;28;20020;-78
2022/08/13 06:09:30;;;;;;;1.38;0.90;;;19.70;63.80;;;;;;5115212;28;20019;-78
2022/08/13 06:11:59;;;;;;;3.08;1.20;;;19.80;63.40;;;;;;5114267;28;20038;-78
2022/08/13 06:14:25;;;;;;;2.55;1.08;;;19.80;63.20;;;;;;5114186;28;20038;-78
2022/08/13 06:16:51;;;;;;;1.85;0.90;;;19.80;63.40;;;;;;5114825;28;20027;-78
2022/08/13 06:19:22;;;;;;;2.25;1.00;;;19.80;63.40;;;;;;5113870;28;20078;-78
2022/08/13 06:21:49;;;;;;;1.00;0.90;;;19.90;63.20;;;;;;5113994;28;20032;-79
2022/08/13 06:24:15;;;;;;;1.65;1.02;;;19.90;63.00;;;;;;5114643;28;20461;-79
2022/08/13 06:26:41;;;;;;;2.63;1.08;;;20.00;63.10;;;;;;5113263;28;20119;-80
2022/08/13 06:29:07;;;;;;;1.73;0.95;;;20.10;62.90;;;;;;5114160;28;20444;-80
2022/08/13 06:31:38;;;;;;;1.73;0.95;;;20.00;62.90;;;;;;5115262;28;20051;-80
2022/08/13 06:34:08;;;;;;;1.00;1.00;;;20.10;63.00;;;;;;5114110;28;20030;-78
2022/08/13 06:36:36;;;;;;;1.55;0.95;;;20.20;63.00;;;;;;5113901;28;20027;-78
2022/08/13 06:39:04;;;;;;;1.42;1.23;;;20.20;63.00;;;;;;5113380;28;20030;-78
2022/08/13 06:41:32;;;;;;;3.08;1.00;;;20.30;63.10;;;;;;5113076;28;20101;-77
2022/08/13 06:43:58;;;;;;;1.10;1.00;;;20.30;63.50;;;;;;5112754;28;20028;-78
2022/08/13 06:46:28;;;;;;;1.20;1.00;;;20.40;62.80;;;;;;5113458;28;20094;-78
2022/08/13 06:48:57;;;;;;;2.28;1.20;;;20.50;62.40;;;;;;5112848;28;20040;-77
2022/08/13 06:51:23;;;;;;;3.00;1.20;;;20.50;62.20;;;;;;5113392;28;20028;-77
2022/08/13 06:53:49;;;;;;;3.22;1.10;;;20.60;62.30;;;;;;5112674;28;20141;-77
2022/08/13 06:56:20;;;;;;;1.40;1.10;;;20.60;62.70;;;;;;5113248;28;20039;-77
2022/08/13 06:58:49;;;;;;;1.00;0.80;;;20.60;62.60;;;;;;5112568;28;20023;-77
2022/08/13 07:01:21;;;;;;;1.48;1.00;;;20.60;62.50;;;;;;5114539;28;20023;-78
2022/08/13 07:03:47;;;;;;;1.88;1.10;;;20.70;62.20;;;;;;5114341;28;20110;-81
2022/08/13 07:06:16;;;;;;;2.17;0.95;;;20.80;62.10;;;;;;5114668;28;20047;-80
2022/08/13 07:08:43;;;;;;;3.22;0.80;;;20.80;62.00;;;;;;5113077;28;20114;-80
2022/08/13 07:11:21;;;;;;;2.78;0.98;;;20.90;62.20;;;;;;5113500;28;20031;-80
2022/08/13 07:13:49;;;;;;;2.72;1.20;;;20.90;62.20;;;;;;5112631;28;20447;-79
2022/08/13 07:16:16;;;;;;;1.98;0.98;;;20.90;63.00;;;;;;5113423;28;20027;-80
2022/08/13 07:18:43;;;;;;;1.58;0.90;;;21.00;63.10;;;;;;5113875;28;20024;-80
2022/08/13 07:21:11;;;;;;;0.90;0.80;;;21.00;62.60;;;;;;5113308;28;20077;-79
2022/08/13 07:23:41;;;;;;;2.53;0.90;;;21.10;62.50;;;;;;5113559;28;20032;-81
2022/08/13 07:26:09;;;;;;;2.50;1.00;;;21.20;62.80;;;;;;5113412;28;20027;-81
2022/08/13 07:28:35;;;;;;;1.98;0.80;;;21.20;62.50;;;;;;5112485;28;20085;-79
2022/08/13 07:31:07;;;;;;;0.95;0.90;;;21.20;61.70;;;;;;5112579;28;20032;-80
2022/08/13 07:33:34;;;;;;;;;;;21.20;62.00;;;;;;5114577;28;20052;-80
2022/08/13 07:36:05;;;;;;;1.38;0.90;;;21.30;62.80;;;;;;5112365;28;20249;-79
2022/08/13 07:38:31;;;;;;;1.75;1.00;;;21.40;62.70;;;;;;5113922;28;20030;-84
2022/08/13 07:41:00;;;;;;;1.20;0.90;;;21.40;62.30;;;;;;5112139;28;20035;-81
2022/08/13 07:43:27;;;;;;;1.20;0.90;;;21.50;62.10;;;;;;5112886;28;20514;-81
2022/08/13 07:46:10;;;;;;;1.83;1.10;;;21.50;61.90;;;;;;5112494;28;20099;-80
2022/08/13 07:48:37;;;;;;;8.02;1.20;;;21.60;62.20;;;;;;5112767;28;20031;-80
2022/08/13 07:51:05;;;;;;;1.15;0.85;;;21.60;61.60;;;;;;5112889;28;20094;-79
2022/08/13 07:53:36;;;;;;;6.32;1.05;;;21.70;61.70;;;;;;5112417;28;20111;-79
2022/08/13 07:56:04;;;;;;;2.75;0.98;;;21.70;61.70;;;;;;5112056;28;20385;-80
2022/08/13 07:58:33;;;;;;;2.97;1.10;;;21.80;61.30;;;;;;5112370;28;20034;-80
2022/08/13 08:01:00;;;;;;;3.10;1.00;;;21.90;61.00;;;;;;5112929;28;20019;-80
2022/08/13 08:03:47;;;;;;;1.10;1.00;;;21.90;60.70;;;;;;5112512;28;20065;-80
2022/08/13 08:06:17;;;;;;;1.73;0.90;;;22.00;60.80;;;;;;5112607;28;20495;-79
2022/08/13 08:08:44;;;;;;;2.47;1.15;;;22.10;60.50;;;;;;5113037;28;20027;-80
2022/08/13 08:12:30;;;;;;;3.22;1.15;;;22.10;60.30;;;;;;5113665;28;20070;-80
2022/08/13 08:14:01;;;;;;;2.28;1.00;;;22.20;60.50;;;;;;5113095;28;20028;-80
2022/08/13 08:16:32;;;;;;;5.47;1.45;;;22.20;61.00;;;;;;5112943;28;20481;-80
2022/08/13 08:18:58;;;;;;;5.75;1.20;;;22.30;60.50;;;;;;5111775;28;20130;-79
2022/08/13 08:21:25;;;;;;;2.15;1.23;;;22.30;59.90;;;;;;5112567;28;20111;-80
2022/08/13 08:23:57;;;;;;;5.57;1.15;;;22.40;59.70;;;;;;5112194;28;20380;-81
2022/08/13 08:26:26;;;;;;;1.00;0.82;;;22.40;59.90;;;;;;5112736;28;20035;-81
2022/08/13 08:28:57;;;;;;;1.02;0.93;;;22.60;59.60;;;;;;5113251;28;20020;-80
2022/08/13 08:31:24;;;;;;;2.55;0.98;;;22.60;59.20;;;;;;5113267;28;20034;-80
2022/08/13 08:33:51;;;;;;;2.58;0.90;;;22.70;59.20;;;;;;5111677;28;20027;-79
2022/08/13 08:36:16;;;;;;;2.78;0.88;;;22.70;59.20;;;;;;5113279;28;20023;-81
2022/08/13 08:44:32;;;;;;;1.85;1.00;;;23.10;58.50;;;;;;5112414;28;20034;-76
2022/08/13 08:46:59;;;;;;;1.48;0.95;;;23.10;58.20;;;;;;5110549;28;20360;-76
2022/08/13 08:49:25;;;;;;;2.70;1.02;;;23.20;58.00;;;;;;5114231;27;20019;-80
2022/08/13 08:51:52;;;;;;;1.00;0.90;;;23.30;57.80;;;;;;5131005;27;20030;-85
2022/08/13 08:54:20;;;;;;;1.27;0.95;;;23.30;57.70;;;;;;5126853;27;20114;-76
2022/08/13 08:56:47;;;;;;;1.35;0.90;;;23.40;57.10;;;;;;5120667;27;20020;-83
2022/08/13 08:59:13;;;;;;;1.20;1.10;;;23.40;58.10;;;;;;5132323;27;20020;-82
2022/08/13 09:01:44;;;;;;;1.30;0.90;;;23.40;58.10;;;;;;5119304;27;20029;-78
2022/08/13 09:04:11;;;;;;;2.20;1.00;;;23.60;57.30;;;;;;5126525;27;20028;-79
2022/08/13 09:06:38;;;;;;;2.20;0.82;;;23.60;57.40;;;;;;5127998;27;20023;-75
2022/08/13 09:09:06;;;;;;;5.03;1.20;;;23.60;57.90;;;;;;5117185;27;20269;-79
2022/08/13 09:11:35;;;;;;;2.00;0.80;;;23.60;58.30;;;;;;5118732;27;20061;-79
2022/08/13 09:14:10;;;;;;;1.95;1.02;;;23.70;57.40;;;;;;5128325;27;20480;-78
2022/08/13 09:16:38;;;;;;;1.38;0.80;;;23.70;56.80;;;;;;5127731;27;20525;-78
2022/08/13 09:19:07;;;;;;;1.98;1.00;;;23.80;56.10;;;;;;5118071;27;20027;-78
2022/08/13 09:21:46;;;;;;;1.52;0.98;;;23.90;55.60;;;;;;5108487;27;20506;-87
2022/08/13 09:24:15;;;;;;;2.58;1.02;;;24.00;55.70;;;;;;5115347;27;20418;-84
2022/08/13 09:26:47;;;;;;;0.88;0.88;;;24.10;55.30;;;;;;5115116;28;20106;-83
2022/08/13 09:29:14;;;;;;;2.25;0.90;;;24.30;55.40;;;;;;5115157;27;20026;-77
2022/08/13 09:31:48;;;;;;;1.80;1.08;;;24.30;55.20;;;;;;5115499;28;20013;-80
2022/08/13 09:34:15;;;;;;;1.35;0.90;;;24.40;55.00;;;;;;5115244;27;20468;-78
2022/08/13 09:36:41;;;;;;;5.22;1.30;;;24.50;55.00;;;;;;5122993;27;20020;-77
2022/08/13 09:39:08;;;;;;;1.40;1.20;;;24.50;54.70;;;;;;5119286;27;20035;-77
2022/08/13 09:41:48;;;;;;;2.22;0.80;;;24.50;54.50;;;;;;5118146;27;20134;-78
2022/08/13 09:44:16;;;;;;;7.53;1.00;;;24.50;54.50;;;;;;5125423;27;20023;-77
2022/08/13 09:46:42;;;;;;;1.48;0.88;;;24.70;54.30;;;;;;5128190;27;20556;-78
2022/08/13 09:49:11;;;;;;;2.30;0.90;;;24.70;53.80;;;;;;5117840;27;20098;-76
2022/08/13 09:51:37;;;;;;;2.55;1.02;;;24.80;53.30;;;;;;5130932;27;20064;-77
2022/08/13 09:54:09;;;;;;;1.08;0.90;;;24.90;52.60;;;;;;5121568;27;20023;-76
2022/08/13 09:56:38;;;;;;;2.42;1.08;;;24.90;52.70;;;;;;5122836;27;20023;-82
2022/08/13 09:59:10;;;;;;;1.80;0.90;;;25.10;52.40;;;;;;5116114;27;20033;-77
2022/08/13 10:01:36;;;;;;;;;;;25.10;51.90;;;;;;5102947;27;20027;-77
2022/08/13 10:04:01;;;;;;;1.30;1.00;;;25.10;52.00;;;;;;5126580;27;19911;-77
2022/08/13 10:06:28;;;;;;;2.67;1.20;;;25.20;52.30;;;;;;5126318;27;20027;-77
2022/08/13 10:08:55;;;;;;;1.83;0.90;;;25.20;52.60;;;;;;5117461;27;20024;-77
2022/08/13 10:11:22;;;;;;;0.85;0.75;;;25.30;51.90;;;;;;5131568;27;20032;-77
2022/08/13 10:13:48;;;;;;;1.05;0.77;;;25.40;51.50;;;;;;5112847;28;20053;-76
2022/08/13 10:16:14;;;;;;;2.58;0.93;;;25.50;51.60;;;;;;5115748;27;20122;-77
2022/08/13 10:18:41;;;;;;;1.38;0.88;;;25.60;51.30;;;;;;5118752;27;20438;-86
2022/08/13 10:21:08;;;;;;;2.35;0.90;;;25.60;51.50;;;;;;5127500;27;20030;-86
2022/08/13 10:23:35;;;;;;;0.80;0.80;;;25.60;51.50;;;;;;5118206;27;20059;-88
2022/08/13 10:26:01;;;;;;;2.42;0.93;;;25.60;51.10;;;;;;5126404;27;20023;-86
2022/08/13 10:28:32;;;;;;;2.10;0.95;;;25.60;50.90;;;;;;5125374;27;20027;-86
2022/08/13 10:31:00;;;;;;;2.97;1.10;;;25.70;50.40;;;;;;5118609;27;20458;-83
2022/08/13 10:33:27;;;;;;;2.20;0.63;;;25.70;50.10;;;;;;5131102;27;20044;-84
2022/08/13 10:35:53;;;;;;;1.10;0.70;;;25.80;49.40;;;;;;5119926;27;20053;-82
2022/08/13 10:38:26;;;;;;;1.70;1.02;;;26.00;49.40;;;;;;5123850;27;20020;-79
2022/08/13 10:41:07;;;;;;;1.58;0.75;;;25.90;49.60;;;;;;5129060;27;20023;-81
2022/08/13 10:43:40;;;;;;;0.80;0.70;;;26.10;48.00;;;;;;5101050;27;20050;-86
2022/08/13 10:46:12;;;;;;;2.40;0.80;;;26.10;48.40;;;;;;5126021;27;20461;-83
2022/08/13 10:48:38;;;;;;;0.82;0.80;;;26.10;48.50;;;;;;5127043;27;20051;-80
2022/08/13 10:51:04;;;;;;;85.65;45.58;;;26.10;48.50;;;;;;5136390;27;20533;-77
2022/08/13 10:56:17;;;;;;;2.15;1.95;;;26.30;47.30;;;;;;5124574;27;20492;-86
2022/08/13 10:58:43;;;;;;;1.73;1.17;;;26.20;47.20;;;;;;5114974;27;20519;-89
2022/08/13 11:01:10;;;;;;;2.28;1.02;;;26.20;47.60;;;;;;5115736;27;20375;-84
2022/08/13 11:03:36;;;;;;;1.58;1.10;;;26.20;47.70;;;;;;5117130;27;20049;-87
2022/08/13 11:06:06;;;;;;;1.88;0.90;;;26.40;47.30;;;;;;5112063;27;20019;-88
2022/08/13 11:08:37;;;;;;;1.35;0.80;;;26.40;45.90;;;;;;5117756;27;20016;-82
2022/08/13 11:11:07;;;;;;;1.20;0.77;;;26.50;46.40;;;;;;5123400;27;20028;-85
2022/08/13 11:13:36;;;;;;;0.90;0.80;;;26.70;46.50;;;;;;5101387;27;20027;-81
2022/08/13 11:16:05;;;;;;;1.25;0.80;;;26.70;46.50;;;;;;5125276;27;20024;-85
2022/08/13 11:18:32;;;;;;;2.70;0.80;;;26.90;46.70;;;;;;5119194;27;20024;-82
2022/08/13 11:21:06;;;;;;;0.93;0.70;;;26.90;46.30;;;;;;5125335;27;20023;-82
2022/08/13 11:23:33;;;;;;;0.90;0.65;;;26.90;46.20;;;;;;5103833;27;20030;-85
2022/08/13 11:25:59;;;;;;;1.13;0.90;;;26.90;45.70;;;;;;5127995;27;20034;-84
2022/08/13 11:28:24;;;;;;;1.30;0.90;;;27.00;45.70;;;;;;5124483;27;20019;-89
2022/08/13 11:30:52;;;;;;;1.65;0.80;;;26.90;45.50;;;;;;5119539;27;20023;-90
2022/08/13 11:33:20;;;;;;;1.85;1.00;;;26.80;45.70;;;;;;5131978;27;20113;-84
2022/08/13 11:35:46;;;;;;;1.75;0.88;;;26.80;46.30;;;;;;5118932;27;20046;-84
2022/08/13 11:38:14;;;;;;;1.10;0.77;;;27.10;46.00;;;;;;5123271;27;20457;-84
2022/08/13 11:40:46;;;;;;;2.22;1.15;;;27.20;45.80;;;;;;5107935;28;20456;-85
2022/08/13 11:43:12;;;;;;;2.85;0.77;;;27.30;45.50;;;;;;5124286;27;20032;-86
2022/08/13 11:45:38;;;;;;;3.88;1.48;;;27.50;45.20;;;;;;5112401;28;20419;-86
2022/08/13 11:48:05;;;;;;;8.07;3.80;;;27.40;45.10;;;;;;5114270;28;20073;-82
2022/08/13 11:50:31;;;;;;;2.80;1.00;;;27.50;45.40;;;;;;5114751;28;20023;-88
2022/08/13 11:52:57;;;;;;;0.93;0.90;;;27.70;45.40;;;;;;5124150;27;20110;-82
2022/08/13 11:55:22;;;;;;;2.20;0.98;;;27.90;44.90;;;;;;5114678;28;20123;-82
2022/08/13 11:57:57;;;;;;;2.22;1.00;;;27.90;44.80;;;;;;5114621;28;20028;-85
2022/08/13 12:00:23;;;;;;;2.83;1.27;;;27.90;44.80;;;;;;5105627;28;20513;-84
2022/08/13 12:02:49;;;;;;;2.53;0.82;;;27.90;44.80;;;;;;5113146;28;20133;-82
2022/08/13 12:05:14;;;;;;;3.20;1.13;;;28.00;44.70;;;;;;5115267;28;20020;-84
2022/08/13 12:07:40;;;;;;;0.95;0.70;;;28.10;45.00;;;;;;5116995;27;20047;-81
2022/08/13 12:10:06;;;;;;;0.85;0.75;;;28.20;44.60;;;;;;5113960;28;20020;-88
2022/08/13 12:12:32;;;;;;;1.20;0.90;;;28.30;44.50;;;;;;5113264;28;20039;-87
2022/08/13 12:14:58;;;;;;;2.17;1.00;;;28.40;44.60;;;;;;5120919;27;20064;-78
2022/08/13 12:17:24;;;;;;;1.15;1.00;;;28.50;44.60;;;;;;5114832;28;20023;-84
2022/08/13 12:19:49;;;;;;;1.05;0.85;;;28.60;44.60;;;;;;5112356;28;20031;-81
2022/08/13 12:22:15;;;;;;;1.95;0.90;;;28.70;44.80;;;;;;5114707;28;20038;-86
2022/08/13 12:24:41;;;;;;;0.93;0.82;;;28.90;44.60;;;;;;5116486;28;20019;-87
2022/08/13 12:27:07;;;;;;;1.15;0.60;;;28.90;44.30;;;;;;5133374;27;20027;-83
2022/08/13 12:29:32;;;;;;;1.80;0.95;;;29.00;44.10;;;;;;5132903;27;20024;-84
2022/08/13 12:31:58;;;;;;;1.10;0.90;;;29.00;43.90;;;;;;5124207;27;20027;-87
2022/08/13 12:34:24;;;;;;;2.38;0.80;;;28.90;43.60;;;;;;5126847;27;20028;-84
2022/08/13 12:36:49;;;;;;;1.98;0.70;;;29.00;43.70;;;;;;5130892;27;20058;-88
2022/08/13 12:39:15;;;;;;;2.28;1.02;;;29.00;43.50;;;;;;5119805;27;20024;-85
2022/08/13 12:41:41;;;;;;;1.70;0.98;;;29.00;43.70;;;;;;5131442;27;20081;-89
2022/08/13 12:44:06;;;;;;;0.63;0.63;;;29.00;43.90;;;;;;5123907;27;20022;-88
2022/08/13 12:46:32;;;;;;;1.85;0.85;;;29.10;44.00;;;;;;5125040;27;20028;-84
2022/08/13 12:48:58;;;;;;;1.00;0.90;;;29.30;43.60;;;;;;5117202;27;20480;-86
2022/08/13 12:51:23;;;;;;;1.15;0.93;;;29.40;43.30;;;;;;5131773;27;20023;-93
2022/08/13 12:53:49;;;;;;;1.67;0.80;;;29.50;42.80;;;;;;5122142;27;20019;-84
2022/08/13 12:56:14;;;;;;;0.90;0.80;;;29.60;42.40;;;;;;5126018;27;20032;-89
2022/08/13 12:58:40;;;;;;;1.77;0.70;;;29.60;42.70;;;;;;5129247;27;20034;-86
2022/08/13 13:01:06;;;;;;;1.80;0.85;;;29.70;42.80;;;;;;5119948;27;20030;-89
2022/08/13 13:03:32;;;;;;;1.77;0.80;;;29.70;41.80;;;;;;5133367;27;20038;-86
2022/08/13 13:05:58;;;;;;;0.93;0.77;;;29.90;41.70;;;;;;5122050;27;20034;-86
2022/08/13 13:08:32;;;;;;;1.70;0.80;;;30.00;41.50;;;;;;5125681;27;20043;-86
2022/08/13 13:11:03;;;;;;;1.92;0.80;;;30.30;41.40;;;;;;5130638;27;20042;-88
2022/08/13 13:13:35;;;;;;;2.55;0.80;;;30.60;41.20;;;;;;5115473;27;20038;-88
2022/08/13 13:16:03;;;;;;;0.50;0.50;;;30.80;40.90;;;;;;5124108;27;20106;-86